sensor_id;sensor_type;location;lat;lon;timestamp;P1;P2;P0
79317;PMS7003;68779;50.036;19.964;2023-04-24T00:08:59;13;12;10
79317;PMS7003;68779;50.036;19.964;2023-04-24T00:39:15;13;13;9
79317;PMS7003;68779;50.036;19.964;2023-04-24T01:09:32;12;12;10
79317;PMS7003;68779;50.036;19.964;2023-04-24T01:39:48;17;17;13
79317;PMS7003;68779;50.036;19.964;2023-04-24T02:10:04;22;19;15
79317;PMS7003;68779;50.036;19.964;2023-04-24T02:40:21;17;17;13
79317;PMS7003;68779;50.036;19.964;2023-04-24T03:10:37;21;20;14
79317;PMS7003;68779;50.036;19.964;2023-04-24T03:40:53;23;22;16
79317;PMS7003;68779;50.036;19.964;2023-04-24T04:11:10;19;18;14
79317;PMS7003;68779;50.036;19.964;2023-04-24T04:41:26;18;17;11
79317;PMS7003;68779;50.036;19.964;2023-04-24T05:11:45;21;18;14
79317;PMS7003;68779;50.036;19.964;2023-04-24T05:41:59;15;14;10
79317;PMS7003;68779;50.036;19.964;2023-04-24T06:12:19;12;11;9
79317;PMS7003;68779;50.036;19.964;2023-04-24T06:42:33;15;14;10
79317;PMS7003;68779;50.036;19.964;2023-04-24T07:12:48;15;14;12
79317;PMS7003;68779;50.036;19.964;2023-04-24T07:43:05;11;11;8
79317;PMS7003;68779;50.036;19.964;2023-04-24T08:13:20;9;9;7
79317;PMS7003;68779;50.036;19.964;2023-04-24T08:43:36;9;9;8
79317;PMS7003;68779;50.036;19.964;2023-04-24T09:13:53;11;10;8
79317;PMS7003;68779;50.036;19.964;2023-04-24T10:14:30;7;6;5
79317;PMS7003;68779;50.036;19.964;2023-04-24T10:44:44;17;17;13
79317;PMS7003;68779;50.036;19.964;2023-04-24T11:15:02;9;9;7
79317;PMS7003;68779;50.036;19.964;2023-04-24T11:45:27;10;10;9
79317;PMS7003;68779;50.036;19.964;2023-04-24T12:15:39;11;11;9
79317;PMS7003;68779;50.036;19.964;2023-04-24T12:45:53;10;10;9
79317;PMS7003;68779;50.036;19.964;2023-04-24T13:16:09;15;14;11
79317;PMS7003;68779;50.036;19.964;2023-04-24T13:46:23;11;10;8
79317;PMS7003;68779;50.036;19.964;2023-04-24T14:16:37;8;8;8
79317;PMS7003;68779;50.036;19.964;2023-04-24T14:46:52;4;4;4
79317;PMS7003;68779;50.036;19.964;2023-04-24T15:17:08;7;7;5
79317;PMS7003;68779;50.036;19.964;2023-04-24T15:47:24;9;9;8
79317;PMS7003;68779;50.036;19.964;2023-04-24T16:17:40;5;5;4
79317;PMS7003;68779;50.036;19.964;2023-04-24T16:47:57;6;6;6
79317;PMS7003;68779;50.036;19.964;2023-04-24T17:18:15;7;7;7
79317;PMS7003;68779;50.036;19.964;2023-04-24T17:48:31;9;9;8
79317;PMS7003;68779;50.036;19.964;2023-04-24T19:19:41;13;12;10
79317;PMS7003;68779;50.036;19.964;2023-04-24T20:06:50;12;11;9
79317;PMS7003;68779;50.036;19.964;2023-04-24T20:37:06;20;19;14
79317;PMS7003;68779;50.036;19.964;2023-04-24T21:07:22;20;19;14
79317;PMS7003;68779;50.036;19.964;2023-04-24T21:37:39;17;17;13
79317;PMS7003;68779;50.036;19.964;2023-04-24T22:07:57;24;22;14
79317;PMS7003;68779;50.036;19.964;2023-04-24T22:38:13;30;27;16
79317;PMS7003;68779;50.036;19.964;2023-04-24T23:08:31;15;15;11
79317;PMS7003;68779;50.036;19.964;2023-04-24T23:38:47;14;12;8
